createdAt,value
2023-04-21T00:00:39.302Z,55.52
2023-04-21T00:03:23.632Z,55.56
2023-04-21T00:06:04.858Z,55.48
2023-04-21T00:08:43.641Z,55.34
2023-04-21T00:11:23.640Z,55.50
2023-04-21T00:14:03.175Z,55.40
2023-04-21T00:16:39.216Z,55.40
2023-04-21T00:19:13.750Z,55.59
2023-04-21T00:21:43.174Z,55.79
2023-04-21T00:24:33.552Z,55.75
2023-04-21T00:27:12.261Z,55.84
2023-04-21T00:29:55.784Z,55.78
2023-04-21T00:32:40.268Z,55.87
2023-04-21T00:35:25.985Z,55.95
2023-04-21T00:37:56.669Z,55.90
2023-04-21T00:40:41.734Z,55.94
2023-04-21T00:43:14.071Z,55.94
2023-04-21T00:45:58.817Z,56.07
2023-04-21T00:48:30.881Z,56.11
2023-04-21T00:51:10.792Z,56.26
2023-04-21T00:53:51.280Z,56.29
2023-04-21T00:56:37.244Z,56.35
2023-04-21T00:59:14.822Z,56.48
2023-04-21T01:01:58.294Z,56.46
2023-04-21T01:04:41.207Z,56.45
2023-04-21T01:07:20.036Z,56.56
2023-04-21T01:10:08.788Z,56.57
2023-04-21T01:12:53.720Z,56.64
2023-04-21T01:15:42.833Z,56.73
2023-04-21T01:18:21.906Z,56.71
2023-04-21T01:21:10.515Z,56.75
2023-04-21T01:23:51.877Z,56.81
2023-04-21T01:26:36.261Z,56.87
2023-04-21T01:29:11.447Z,56.99
2023-04-21T01:32:00.235Z,56.85
2023-04-21T01:34:39.976Z,57.00
2023-04-21T01:37:27.953Z,56.95
2023-04-21T01:40:13.069Z,57.06
2023-04-21T01:42:46.752Z,57.15
2023-04-21T01:45:28.230Z,57.20
2023-04-21T01:48:07.501Z,57.23
2023-04-21T01:50:41.889Z,57.32
2023-04-21T01:53:25.986Z,57.38
2023-04-21T01:56:01.320Z,57.24
2023-04-21T01:58:43.427Z,57.12
2023-04-21T02:01:17.634Z,57.19
2023-04-21T02:04:01.208Z,57.17
2023-04-21T02:06:39.375Z,57.27
2023-04-21T02:09:11.388Z,57.31
2023-04-21T02:11:47.384Z,57.42
2023-04-21T02:14:19.746Z,57.47
2023-04-21T02:16:54.158Z,57.53
2023-04-21T02:19:37.602Z,57.54
2023-04-21T02:22:14.308Z,57.63
2023-04-21T02:24:56.639Z,57.54
2023-04-21T02:30:18.578Z,57.76
2023-04-21T02:32:58.036Z,57.90
2023-04-21T02:35:33.907Z,58.00
2023-04-21T02:38:08.506Z,58.13
2023-04-21T02:40:43.632Z,58.15
2023-04-21T02:43:30.188Z,58.05
2023-04-21T02:46:14.586Z,58.20
2023-04-21T02:49:22.060Z,58.36
2023-04-21T02:52:07.165Z,58.37
2023-04-21T02:54:42.786Z,58.40
2023-04-21T02:57:20.152Z,58.37
2023-04-21T02:59:54.589Z,58.19
2023-04-21T03:02:26.933Z,58.25
2023-04-21T03:05:01.894Z,58.46
2023-04-21T03:07:38.395Z,58.49
2023-04-21T03:10:19.872Z,58.59
2023-04-21T03:12:53.566Z,58.75
2023-04-21T03:15:37.197Z,58.78
2023-04-21T03:18:36.004Z,58.88
2023-04-21T03:21:08.903Z,58.82
2023-04-21T03:23:47.305Z,58.80
2023-04-21T03:26:32.721Z,58.92
2023-04-21T03:29:16.117Z,59.12
2023-04-21T03:31:50.762Z,59.14
2023-04-21T03:34:27.541Z,59.22
2023-04-21T03:37:17.874Z,59.33
2023-04-21T03:40:12.370Z,59.50
2023-04-21T03:43:00.512Z,59.55
2023-04-21T03:45:52.363Z,59.61
2023-04-21T03:48:42.061Z,59.55
2023-04-21T03:51:43.498Z,59.46
2023-04-21T03:54:24.384Z,59.52
2023-04-21T03:57:07.726Z,59.57
2023-04-21T03:59:51.257Z,59.58
2023-04-21T04:02:55.399Z,59.51
2023-04-21T04:05:46.038Z,59.47
2023-04-21T04:08:40.731Z,59.58
2023-04-21T04:11:28.123Z,59.64
2023-04-21T04:14:15.494Z,59.68
2023-04-21T04:17:08.543Z,59.65
2023-04-21T04:20:09.323Z,59.64
2023-04-21T04:22:56.743Z,59.58
2023-04-21T04:25:40.194Z,59.56
2023-04-21T04:28:10.270Z,59.52
2023-04-21T04:30:51.757Z,59.46
2023-04-21T04:33:33.411Z,59.42
2023-04-21T04:36:31.933Z,59.37
2023-04-21T04:39:24.774Z,59.33
2023-04-21T04:42:12.051Z,59.17
2023-04-21T04:44:55.301Z,59.07
2023-04-21T04:47:42.605Z,59.00
2023-04-21T04:50:24.244Z,59.07
2023-04-21T04:53:17.770Z,59.03
2023-04-21T04:56:07.368Z,58.94
2023-04-21T05:01:51.385Z,58.33
2023-04-21T05:04:37.207Z,57.97
2023-04-21T05:07:12.226Z,57.66
2023-04-21T05:10:00.946Z,57.49
2023-04-21T05:12:39.542Z,56.92
2023-04-21T05:15:14.652Z,56.54
2023-04-21T05:17:57.290Z,56.41
2023-04-21T05:20:46.462Z,56.69
2023-04-21T05:23:26.708Z,56.36
2023-04-21T05:26:11.399Z,55.85
2023-04-21T05:28:54.565Z,55.67
2023-04-21T05:31:41.187Z,55.43
2023-04-21T05:34:32.337Z,55.15
2023-04-21T05:37:08.206Z,54.64
2023-04-21T05:40:01.503Z,53.60
2023-04-21T05:42:49.280Z,53.54
2023-04-21T05:45:31.156Z,53.26
2023-04-21T05:48:13.356Z,52.76
2023-04-21T05:50:59.801Z,53.51
2023-04-21T05:53:38.374Z,53.36
2023-04-21T05:56:28.554Z,52.33
2023-04-21T05:59:21.441Z,52.10
2023-04-21T06:02:01.897Z,51.35
2023-04-21T06:04:38.195Z,51.09
2023-04-21T06:07:45.649Z,50.70
2023-04-21T06:10:26.719Z,49.87
2023-04-21T06:13:10.052Z,48.99
2023-04-21T06:15:56.374Z,48.36
2023-04-21T06:18:31.287Z,47.26
2023-04-21T06:21:18.245Z,46.29
2023-04-21T06:23:52.512Z,45.54
2023-04-21T06:26:46.079Z,44.76
2023-04-21T06:29:32.583Z,44.10
2023-04-21T06:32:08.800Z,43.37
2023-04-21T06:34:53.793Z,43.07
2023-04-21T06:37:30.446Z,42.81
2023-04-21T06:40:33.600Z,42.02
2023-04-21T06:43:16.104Z,41.00
2023-04-21T06:46:11.400Z,40.27
2023-04-21T06:48:46.563Z,39.97
2023-04-21T06:51:37.561Z,39.83
2023-04-21T06:54:10.981Z,39.26
2023-04-21T06:56:45.550Z,39.58
2023-04-21T06:59:35.421Z,38.79
2023-04-21T07:02:15.922Z,38.74
2023-04-21T07:04:47.173Z,38.51
2023-04-21T07:07:28.886Z,38.31
2023-04-21T07:10:06.175Z,38.27
2023-04-21T07:12:36.154Z,37.91
2023-04-21T07:15:12.981Z,37.46
2023-04-21T07:17:45.690Z,36.53
2023-04-21T07:20:14.943Z,36.46
2023-04-21T07:22:53.186Z,36.05
2023-04-21T07:25:33.324Z,35.74
2023-04-21T07:28:15.909Z,35.04
2023-04-21T07:30:49.968Z,34.95
2023-04-21T07:33:23.655Z,34.49
2023-04-21T07:35:52.448Z,34.07
2023-04-21T07:38:28.558Z,34.06
2023-04-21T07:41:10.167Z,34.11
2023-04-21T07:43:42.678Z,33.79
2023-04-21T07:46:24.478Z,34.04
2023-04-21T07:49:09.852Z,33.45
2023-04-21T07:51:51.357Z,33.09
2023-04-21T07:54:32.285Z,32.73
2023-04-21T07:57:13.247Z,32.68
2023-04-21T07:59:57.390Z,32.13
2023-04-21T08:02:34.901Z,31.19
2023-04-21T08:05:09.493Z,31.66
2023-04-21T08:07:53.609Z,31.66
2023-04-21T08:10:27.346Z,31.67
2023-04-21T08:13:03.188Z,30.99
2023-04-21T08:15:51.099Z,31.09
2023-04-21T08:18:29.176Z,30.29
2023-04-21T08:21:20.400Z,30.11
2023-04-21T08:24:12.784Z,30.16
2023-04-21T08:26:58.826Z,29.71
2023-04-21T08:29:55.697Z,29.79
2023-04-21T08:32:51.200Z,28.87
2023-04-21T08:35:29.795Z,28.32
2023-04-21T08:38:07.139Z,27.94
2023-04-21T08:40:55.468Z,28.46
2023-04-21T08:43:36.041Z,28.17
2023-04-21T08:46:09.005Z,27.80
2023-04-21T08:48:40.694Z,27.67
2023-04-21T08:51:22.929Z,27.32
2023-04-21T08:54:08.202Z,26.82
2023-04-21T08:57:04.559Z,26.06
2023-04-21T08:59:52.664Z,26.36
2023-04-21T09:02:37.421Z,26.56
2023-04-21T09:05:09.437Z,26.28
2023-04-21T09:07:42.000Z,26.31
2023-04-21T09:10:14.653Z,25.89
2023-04-21T09:12:58.177Z,25.82
2023-04-21T09:15:39.871Z,25.25
2023-04-21T09:18:20.978Z,25.16
2023-04-21T09:21:07.725Z,24.60
2023-04-21T09:23:58.485Z,24.67
2023-04-21T09:26:46.319Z,24.68
2023-04-21T09:29:33.719Z,24.45
2023-04-21T09:32:11.799Z,24.11
2023-04-21T09:34:55.387Z,23.78
2023-04-21T09:37:44.245Z,23.28
2023-04-21T09:40:54.026Z,23.58
2023-04-21T09:43:35.012Z,23.91
2023-04-21T09:46:14.775Z,23.52
2023-04-21T09:49:01.953Z,23.12
2023-04-21T09:52:05.772Z,23.48
2023-04-21T09:54:37.149Z,22.93
2023-04-21T09:57:10.883Z,22.57
2023-04-21T09:59:55.900Z,22.45
2023-04-21T10:02:48.267Z,22.36
2023-04-21T10:05:31.577Z,22.15
2023-04-21T10:08:06.616Z,22.43
2023-04-21T10:10:38.722Z,22.08
2023-04-21T10:13:18.792Z,21.55
2023-04-21T10:16:04.354Z,21.08
2023-04-21T10:18:53.964Z,21.38
2023-04-21T10:21:30.143Z,22.15
2023-04-21T10:24:06.750Z,21.25
2023-04-21T10:26:38.454Z,20.61
2023-04-21T10:29:16.027Z,20.40
2023-04-21T10:31:47.746Z,20.65
2023-04-21T10:34:19.082Z,21.18
2023-04-21T10:37:12.483Z,21.83
2023-04-21T10:40:10.409Z,21.62
2023-04-21T10:42:44.583Z,21.58
2023-04-21T10:45:14.012Z,21.73
2023-04-21T10:47:52.513Z,21.98
2023-04-21T10:50:42.035Z,22.53
2023-04-21T10:53:26.360Z,23.09
2023-04-21T10:55:55.997Z,23.42
2023-04-21T10:58:29.454Z,23.45
2023-04-21T11:01:03.100Z,23.79
2023-04-21T11:03:36.196Z,24.12
2023-04-21T11:06:17.770Z,24.67
2023-04-21T11:08:58.575Z,25.43
2023-04-21T11:11:42.936Z,26.04
2023-04-21T11:14:25.507Z,26.12
2023-04-21T11:16:58.194Z,26.36
2023-04-21T11:19:27.770Z,26.26
2023-04-21T11:21:55.974Z,26.22
2023-04-21T11:24:24.696Z,26.61
2023-04-21T11:27:12.181Z,26.93
2023-04-21T11:29:45.887Z,27.26
2023-04-21T11:32:16.362Z,27.41
2023-04-21T11:34:46.832Z,27.06
2023-04-21T11:37:27.300Z,27.31
2023-04-21T11:40:00.708Z,26.98
2023-04-21T11:42:30.156Z,26.50
2023-04-21T11:45:00.896Z,26.76
2023-04-21T11:47:29.306Z,26.59
2023-04-21T11:50:01.903Z,26.37
2023-04-21T11:52:39.156Z,26.46
2023-04-21T11:55:18.600Z,26.47
2023-04-21T11:57:53.402Z,26.38
2023-04-21T12:00:24.527Z,26.45
2023-04-21T12:03:00.762Z,26.65
2023-04-21T12:05:39.340Z,26.67
2023-04-21T12:08:18.212Z,26.52
2023-04-21T12:10:59.246Z,26.49
2023-04-21T12:13:38.580Z,26.50
2023-04-21T12:16:33.844Z,26.66
2023-04-21T12:19:07.706Z,26.36
2023-04-21T12:21:39.836Z,26.17
2023-04-21T12:24:16.749Z,26.23
2023-04-21T12:26:54.651Z,26.24
2023-04-21T12:29:35.554Z,26.03
2023-04-21T12:32:12.866Z,25.87
2023-04-21T12:34:50.794Z,25.79
2023-04-21T12:37:20.211Z,25.76
2023-04-21T12:39:50.897Z,25.93
2023-04-21T12:42:23.486Z,25.99
2023-04-21T12:44:57.392Z,25.98
2023-04-21T12:47:32.511Z,26.26
2023-04-21T12:50:10.288Z,26.35
2023-04-21T12:52:39.826Z,26.49
2023-04-21T12:55:14.739Z,26.37
2023-04-21T12:57:48.194Z,26.29
2023-04-21T13:00:24.392Z,26.34
2023-04-21T13:02:59.973Z,26.17
2023-04-21T13:05:38.820Z,26.08
2023-04-21T13:08:08.018Z,26.15
2023-04-21T13:10:45.776Z,25.97
2023-04-21T13:13:14.857Z,25.96
2023-04-21T13:15:51.884Z,25.95
2023-04-21T13:18:20.793Z,25.95
2023-04-21T13:20:53.841Z,25.61
2023-04-21T13:23:28.404Z,25.47
2023-04-21T13:26:12.096Z,25.84
2023-04-21T13:28:44.499Z,25.95
2023-04-21T13:31:24.264Z,26.15
2023-04-21T13:34:04.953Z,26.31
2023-04-21T13:36:45.377Z,26.45
2023-04-21T13:39:24.732Z,26.42
2023-04-21T13:42:02.513Z,26.45
2023-04-21T13:44:37.925Z,26.41
2023-04-21T13:47:11.365Z,26.44
2023-04-21T13:49:50.213Z,26.49
2023-04-21T13:52:27.934Z,26.58
2023-04-21T13:55:17.775Z,26.87
2023-04-21T13:57:57.518Z,26.98
2023-04-21T14:00:36.045Z,26.94
2023-04-21T14:03:14.022Z,27.03
2023-04-21T14:05:43.760Z,27.09
2023-04-21T14:08:20.861Z,27.08
2023-04-21T14:10:51.873Z,27.10
2023-04-21T14:13:36.345Z,26.92
2023-04-21T14:16:19.721Z,26.83
2023-04-21T14:19:03.927Z,26.74
2023-04-21T14:22:22.810Z,26.46
2023-04-21T14:24:55.564Z,26.25
2023-04-21T14:27:57.544Z,26.33
2023-04-21T14:30:42.832Z,26.45
2023-04-21T14:33:30.747Z,26.10
2023-04-21T14:36:12.467Z,26.20
2023-04-21T14:38:53.453Z,26.25
2023-04-21T14:41:38.066Z,26.05
2023-04-21T14:44:23.414Z,26.15
2023-04-21T14:47:09.945Z,26.36
2023-04-21T14:49:55.245Z,26.45
2023-04-21T14:52:40.298Z,26.45
2023-04-21T14:55:24.165Z,26.07
2023-04-21T14:58:05.695Z,26.00
2023-04-21T15:00:50.175Z,26.11
2023-04-21T15:03:20.209Z,26.12
2023-04-21T15:05:55.777Z,25.91
2023-04-21T15:08:40.648Z,25.99
2023-04-21T15:11:13.044Z,26.06
2023-04-21T15:13:59.972Z,26.05
2023-04-21T15:16:36.266Z,25.92
2023-04-21T15:19:17.497Z,25.86
2023-04-21T15:22:25.272Z,25.71
2023-04-21T15:25:14.204Z,25.53
2023-04-21T15:28:14.163Z,25.50
2023-04-21T15:31:12.995Z,25.02
2023-04-21T15:34:08.148Z,25.18
2023-04-21T15:37:16.471Z,25.38
2023-04-21T15:39:57.303Z,25.53
2023-04-21T15:42:52.862Z,25.66
2023-04-21T15:45:44.784Z,25.91
2023-04-21T15:48:17.279Z,26.06
2023-04-21T15:51:04.192Z,26.12
2023-04-21T15:53:51.438Z,26.01
2023-04-21T16:00:10.436Z,26.33
2023-04-21T16:02:46.602Z,26.57
2023-04-21T16:05:33.898Z,26.68
2023-04-21T16:08:30.354Z,26.81
2023-04-21T16:11:10.657Z,26.88
2023-04-21T16:14:04.266Z,26.92
2023-04-21T16:16:52.790Z,26.69
2023-04-21T16:19:31.798Z,26.67
2023-04-21T16:22:06.856Z,26.74
2023-04-21T16:24:47.782Z,26.67
2023-04-21T16:27:33.764Z,26.79
2023-04-21T16:30:13.751Z,26.89
2023-04-21T16:33:07.056Z,26.89
2023-04-21T16:35:46.108Z,26.97
2023-04-21T16:38:46.822Z,26.98
2023-04-21T16:41:32.053Z,26.92
2023-04-21T16:44:08.897Z,26.82
2023-04-21T16:46:47.338Z,26.95
2023-04-21T16:49:21.138Z,27.12
2023-04-21T16:52:07.289Z,27.33
2023-04-21T16:54:46.295Z,27.48
2023-04-21T16:57:35.173Z,27.63
2023-04-21T17:00:23.127Z,27.84
2023-04-21T17:03:05.476Z,27.91
2023-04-21T17:05:43.475Z,28.06
2023-04-21T17:08:31.941Z,28.33
2023-04-21T17:11:18.246Z,28.42
2023-04-21T17:14:16.747Z,28.54
2023-04-21T17:16:47.916Z,28.73
2023-04-21T17:19:24.864Z,28.79
2023-04-21T17:21:59.013Z,28.88
2023-04-21T17:24:53.560Z,29.12
2023-04-21T17:27:27.001Z,29.25
2023-04-21T17:30:00.292Z,29.39
2023-04-21T17:32:41.956Z,29.60
2023-04-21T17:35:13.848Z,29.75
2023-04-21T17:37:45.816Z,29.93
2023-04-21T17:40:26.683Z,29.89
2023-04-21T17:43:03.887Z,30.15
2023-04-21T17:45:33.264Z,30.31
2023-04-21T17:48:03.718Z,30.35
2023-04-21T17:50:44.776Z,30.55
2023-04-21T17:53:31.584Z,30.74
2023-04-21T17:56:05.315Z,30.72
2023-04-21T17:58:42.998Z,30.96
2023-04-21T18:01:13.206Z,31.13
2023-04-21T18:03:45.164Z,31.16
2023-04-21T18:06:31.499Z,31.35
2023-04-21T18:09:04.193Z,31.54
2023-04-21T18:11:36.693Z,31.76
2023-04-21T18:14:16.390Z,31.93
2023-04-21T18:16:47.129Z,32.07
2023-04-21T18:19:17.982Z,32.26
2023-04-21T18:21:46.925Z,32.27
2023-04-21T18:24:23.724Z,32.62
2023-04-21T18:29:50.374Z,33.24
2023-04-21T18:32:27.856Z,33.99
2023-04-21T18:35:05.916Z,34.58
2023-04-21T18:37:40.101Z,34.98
2023-04-21T18:44:08.075Z,35.66
2023-04-21T18:46:42.606Z,36.03
2023-04-21T18:49:11.925Z,36.39
2023-04-21T18:51:45.090Z,36.70
2023-04-21T18:54:22.790Z,37.08
2023-04-21T18:57:02.715Z,37.46
2023-04-21T18:59:40.706Z,37.80
2023-04-21T19:02:18.349Z,37.73
2023-04-21T19:04:50.452Z,37.74
2023-04-21T19:07:23.620Z,37.90
2023-04-21T19:09:54.954Z,37.83
2023-04-21T19:12:28.726Z,37.79
2023-04-21T19:15:04.041Z,37.74
2023-04-21T19:17:33.272Z,37.73
2023-04-21T19:20:04.538Z,37.65
2023-04-21T19:22:42.348Z,37.79
2023-04-21T19:25:19.197Z,37.65
2023-04-21T19:27:57.536Z,37.77
2023-04-21T19:30:31.822Z,37.77
2023-04-21T19:33:11.718Z,37.79
2023-04-21T19:35:45.939Z,37.72
2023-04-21T19:38:24.169Z,37.90
2023-04-21T19:41:09.025Z,38.08
2023-04-21T19:43:53.880Z,38.01
2023-04-21T19:46:29.248Z,38.06
2023-04-21T19:49:15.161Z,38.05
2023-04-21T19:51:44.440Z,38.11
2023-04-21T19:54:27.164Z,38.19
2023-04-21T19:57:02.005Z,38.33
2023-04-21T19:59:51.011Z,38.51
2023-04-21T20:02:30.456Z,38.75
2023-04-21T20:05:04.455Z,39.00
2023-04-21T20:07:39.803Z,39.16
2023-04-21T20:10:19.135Z,39.19
2023-04-21T20:12:59.824Z,39.36
2023-04-21T20:15:29.060Z,39.53
2023-04-21T20:18:24.642Z,39.67
2023-04-21T20:20:58.460Z,39.89
2023-04-21T20:23:38.165Z,40.29
2023-04-21T20:26:13.648Z,40.84
2023-04-21T20:28:50.210Z,41.44
2023-04-21T20:31:28.989Z,41.96
2023-04-21T20:33:57.862Z,42.39
2023-04-21T20:36:35.982Z,42.88
2023-04-21T20:39:09.955Z,43.28
2023-04-21T20:41:45.716Z,43.61
2023-04-21T20:44:20.728Z,43.90
2023-04-21T20:47:01.583Z,44.05
2023-04-21T20:49:33.995Z,44.32
2023-04-21T20:52:08.002Z,44.60
2023-04-21T20:54:43.171Z,44.75
2023-04-21T20:57:18.349Z,45.04
2023-04-21T21:00:07.597Z,45.35
2023-04-21T21:02:42.124Z,45.79
2023-04-21T21:05:24.565Z,46.13
2023-04-21T21:07:58.688Z,46.23
2023-04-21T21:10:39.328Z,46.26
2023-04-21T21:13:19.676Z,46.60
2023-04-21T21:15:57.601Z,46.82
2023-04-21T21:18:34.190Z,47.00
2023-04-21T21:21:19.374Z,47.28
2023-04-21T21:23:51.235Z,47.71
2023-04-21T21:26:24.736Z,48.12
2023-04-21T21:29:07.068Z,48.39
2023-04-21T21:31:43.587Z,48.78
2023-04-21T21:34:20.465Z,49.25
2023-04-21T21:36:52.999Z,49.78
2023-04-21T21:39:23.455Z,50.08
2023-04-21T21:42:04.797Z,50.40
2023-04-21T21:44:42.351Z,50.76
2023-04-21T21:47:19.573Z,50.98
2023-04-21T21:49:50.613Z,51.33
2023-04-21T21:52:24.336Z,51.62
2023-04-21T21:54:56.524Z,51.82
2023-04-21T21:57:26.339Z,52.03
2023-04-21T22:00:00.112Z,52.53
2023-04-21T22:02:35.932Z,52.89
2023-04-21T22:05:06.069Z,52.91
2023-04-21T22:07:44.411Z,53.00
2023-04-21T22:10:13.759Z,53.23
2023-04-21T22:12:47.262Z,53.21
2023-04-21T22:15:21.840Z,53.48
2023-04-21T22:17:53.873Z,53.63
2023-04-21T22:20:22.987Z,53.74
2023-04-21T22:22:57.802Z,54.11
2023-04-21T22:25:31.864Z,54.26
2023-04-21T22:28:12.048Z,54.39
2023-04-21T22:30:44.813Z,54.50
2023-04-21T22:33:13.902Z,54.60
2023-04-21T22:35:47.039Z,54.81
2023-04-21T22:38:23.782Z,54.95
2023-04-21T22:40:54.033Z,55.02
2023-04-21T22:43:28.925Z,55.30
2023-04-21T22:46:00.490Z,55.45
2023-04-21T22:48:29.325Z,55.76
2023-04-21T22:51:11.384Z,55.77
2023-04-21T22:53:40.717Z,56.02
2023-04-21T22:56:13.404Z,56.10
2023-04-21T22:58:48.937Z,56.17
2023-04-21T23:01:21.486Z,56.14
2023-04-21T23:03:58.800Z,56.37
2023-04-21T23:06:28.090Z,56.57
2023-04-21T23:09:01.406Z,56.75
2023-04-21T23:11:41.189Z,57.01
2023-04-21T23:14:11.598Z,56.98
2023-04-21T23:16:48.860Z,56.89
2023-04-21T23:19:24.148Z,56.84
2023-04-21T23:21:59.147Z,56.99
2023-04-21T23:24:33.332Z,56.88
2023-04-21T23:27:11.172Z,56.91
2023-04-21T23:29:40.639Z,56.94
2023-04-21T23:32:19.237Z,56.88
2023-04-21T23:34:54.486Z,57.10
2023-04-21T23:37:24.279Z,57.17
2023-04-21T23:39:53.136Z,57.14
2023-04-21T23:42:25.723Z,57.33
2023-04-21T23:45:00.000Z,57.44
2023-04-21T23:47:35.606Z,57.62
2023-04-21T23:50:07.615Z,57.81
2023-04-21T23:52:44.861Z,58.09
2023-04-21T23:55:18.173Z,58.16
2023-04-21T23:57:47.306Z,58.14
